Griffing Park, Texas
Current Conditions -  °F | °C
As of 2:53 PM on Saturday 20 Dec 2014 (Local Time) from KBPT Reporting Station
Broken Clouds Broken Clouds  
Wind Chill: 60°   Ceiling: 1400
Heat Index: 60°   Visibility: 10mi
Dew Point: 49°   Wind: 9mph
Humidity: 67%   Direction: 350°N
Pressure: 30.13"   Gusts: NA
Location:  29.7569°N, 94.1898°W
Report Text: KBPT 202053Z 35008KT 10SM BKN014 16/09 A3013 RMK AO2 SLP201 T01560094 56018
Loading
Personal Weather Stations






























Interactive Weather Map New forecast layout! Learn more

10-Day Weather Forecast

Advertisements
Track Severe Weather on mobile